sensor_id;sensor_type;location;lat;lon;timestamp;P1;durP1;ratioP1;P2;durP2;ratioP2
1204;SDS011;592;48.764;9.174;2022-08-03T06:41:21;7.97;;;5.67;;
1204;SDS011;592;48.764;9.174;2022-08-03T06:43:48;11.50;;;5.50;;
1204;SDS011;592;48.764;9.174;2022-08-03T06:46:14;8.50;;;5.50;;
1204;SDS011;592;48.764;9.174;2022-08-03T06:48:41;6.90;;;5.10;;
1204;SDS011;592;48.764;9.174;2022-08-03T06:51:08;7.40;;;4.13;;
1204;SDS011;592;48.764;9.174;2022-08-03T06:53:35;5.90;;;4.17;;
1204;SDS011;592;48.764;9.174;2022-08-03T06:56:03;6.30;;;4.40;;
1204;SDS011;592;48.764;9.174;2022-08-03T06:58:31;6.80;;;4.80;;
1204;SDS011;592;48.764;9.174;2022-08-03T07:00:58;7.47;;;4.13;;
1204;SDS011;592;48.764;9.174;2022-08-03T07:03:24;14.73;;;4.63;;
1204;SDS011;592;48.764;9.174;2022-08-03T07:05:51;6.50;;;4.10;;
1204;SDS011;592;48.764;9.174;2022-08-03T07:08:18;8.07;;;4.80;;
1204;SDS011;592;48.764;9.174;2022-08-03T07:10:45;7.00;;;4.10;;
1204;SDS011;592;48.764;9.174;2022-08-03T07:13:11;7.83;;;4.20;;
1204;SDS011;592;48.764;9.174;2022-08-03T07:15:39;7.27;;;3.83;;
1204;SDS011;592;48.764;9.174;2022-08-03T07:18:06;6.97;;;3.63;;
1204;SDS011;592;48.764;9.174;2022-08-03T07:20:33;8.33;;;4.23;;
1204;SDS011;592;48.764;9.174;2022-08-03T07:22:59;7.60;;;4.23;;
1204;SDS011;592;48.764;9.174;2022-08-03T07:25:26;7.07;;;3.50;;
1204;SDS011;592;48.764;9.174;2022-08-03T07:27:53;6.00;;;3.80;;
1204;SDS011;592;48.764;9.174;2022-08-03T07:30:19;6.50;;;3.97;;
1204;SDS011;592;48.764;9.174;2022-08-03T07:32:47;6.77;;;3.43;;
1204;SDS011;592;48.764;9.174;2022-08-03T07:35:14;6.07;;;3.50;;
1204;SDS011;592;48.764;9.174;2022-08-03T07:37:41;6.50;;;3.50;;
1204;SDS011;592;48.764;9.174;2022-08-03T07:40:07;5.53;;;3.10;;
1204;SDS011;592;48.764;9.174;2022-08-03T07:42:34;6.37;;;3.33;;
1204;SDS011;592;48.764;9.174;2022-08-03T07:45:01;7.57;;;3.33;;
1204;SDS011;592;48.764;9.174;2022-08-03T07:47:28;5.87;;;3.00;;
1204;SDS011;592;48.764;9.174;2022-08-03T07:49:57;6.80;;;3.47;;
1204;SDS011;592;48.764;9.174;2022-08-03T07:52:24;6.83;;;3.33;;
1204;SDS011;592;48.764;9.174;2022-08-03T07:55:08;5.63;;;3.33;;
1204;SDS011;592;48.764;9.174;2022-08-03T07:57:35;6.43;;;3.70;;
1204;SDS011;592;48.764;9.174;2022-08-03T08:00:02;7.10;;;3.60;;
1204;SDS011;592;48.764;9.174;2022-08-03T08:02:31;5.27;;;2.90;;
1204;SDS011;592;48.764;9.174;2022-08-03T08:04:59;5.70;;;3.70;;
1204;SDS011;592;48.764;9.174;2022-08-03T08:07:26;6.37;;;3.30;;
1204;SDS011;592;48.764;9.174;2022-08-03T08:09:52;6.57;;;3.03;;
1204;SDS011;592;48.764;9.174;2022-08-03T08:12:19;5.50;;;2.90;;
1204;SDS011;592;48.764;9.174;2022-08-03T08:14:46;4.87;;;2.30;;
1204;SDS011;592;48.764;9.174;2022-08-03T08:17:13;7.23;;;2.83;;
1204;SDS011;592;48.764;9.174;2022-08-03T08:19:39;5.63;;;2.60;;
1204;SDS011;592;48.764;9.174;2022-08-03T08:22:07;6.90;;;2.53;;
1204;SDS011;592;48.764;9.174;2022-08-03T08:24:34;5.10;;;3.07;;
1204;SDS011;592;48.764;9.174;2022-08-03T08:27:01;5.20;;;2.20;;
1204;SDS011;592;48.764;9.174;2022-08-03T08:29:28;7.50;;;2.70;;
1204;SDS011;592;48.764;9.174;2022-08-03T08:31:55;5.43;;;2.60;;
1204;SDS011;592;48.764;9.174;2022-08-03T08:34:21;7.63;;;2.87;;
1204;SDS011;592;48.764;9.174;2022-08-03T08:36:48;7.03;;;2.77;;
1204;SDS011;592;48.764;9.174;2022-08-03T08:39:16;6.10;;;2.70;;
1204;SDS011;592;48.764;9.174;2022-08-03T08:41:43;5.80;;;2.60;;
1204;SDS011;592;48.764;9.174;2022-08-03T08:44:10;6.00;;;2.50;;
1204;SDS011;592;48.764;9.174;2022-08-03T08:46:37;5.80;;;2.30;;
1204;SDS011;592;48.764;9.174;2022-08-03T08:49:04;5.03;;;2.70;;
1204;SDS011;592;48.764;9.174;2022-08-03T08:51:34;7.43;;;3.00;;
1204;SDS011;592;48.764;9.174;2022-08-03T08:54:04;5.10;;;2.53;;
1204;SDS011;592;48.764;9.174;2022-08-03T08:56:35;4.87;;;2.60;;
1204;SDS011;592;48.764;9.174;2022-08-03T08:59:03;6.07;;;3.03;;
1204;SDS011;592;48.764;9.174;2022-08-03T09:01:30;12.27;;;3.23;;
1204;SDS011;592;48.764;9.174;2022-08-03T09:03:57;5.70;;;2.70;;
1204;SDS011;592;48.764;9.174;2022-08-03T09:06:24;5.60;;;2.90;;
1204;SDS011;592;48.764;9.174;2022-08-03T09:08:50;5.93;;;2.80;;
1204;SDS011;592;48.764;9.174;2022-08-03T09:11:19;4.87;;;2.90;;
1204;SDS011;592;48.764;9.174;2022-08-03T09:13:49;6.50;;;2.90;;
1204;SDS011;592;48.764;9.174;2022-08-03T09:16:17;4.97;;;2.90;;
1204;SDS011;592;48.764;9.174;2022-08-03T09:18:45;5.80;;;2.57;;
1204;SDS011;592;48.764;9.174;2022-08-03T09:21:22;5.50;;;2.83;;
1204;SDS011;592;48.764;9.174;2022-08-03T09:23:52;5.13;;;2.50;;
1204;SDS011;592;48.764;9.174;2022-08-03T09:26:20;7.80;;;2.30;;
1204;SDS011;592;48.764;9.174;2022-08-03T09:28:54;5.80;;;2.70;;
1204;SDS011;592;48.764;9.174;2022-08-03T09:31:28;5.40;;;2.20;;
1204;SDS011;592;48.764;9.174;2022-08-03T09:33:56;5.37;;;2.50;;
1204;SDS011;592;48.764;9.174;2022-08-03T09:36:38;4.70;;;2.37;;
1204;SDS011;592;48.764;9.174;2022-08-03T09:39:06;5.07;;;2.40;;
1204;SDS011;592;48.764;9.174;2022-08-03T09:41:36;4.60;;;2.03;;
1204;SDS011;592;48.764;9.174;2022-08-03T09:44:05;5.53;;;2.53;;
1204;SDS011;592;48.764;9.174;2022-08-03T09:46:46;5.57;;;2.30;;
1204;SDS011;592;48.764;9.174;2022-08-03T09:49:13;10.17;;;2.63;;
1204;SDS011;592;48.764;9.174;2022-08-03T09:51:40;4.37;;;2.47;;
1204;SDS011;592;48.764;9.174;2022-08-03T09:54:06;5.57;;;2.27;;
1204;SDS011;592;48.764;9.174;2022-08-03T09:56:37;7.27;;;2.53;;
1204;SDS011;592;48.764;9.174;2022-08-03T09:59:07;5.03;;;2.30;;
1204;SDS011;592;48.764;9.174;2022-08-03T10:01:34;4.80;;;2.33;;
1204;SDS011;592;48.764;9.174;2022-08-03T10:04:03;4.93;;;2.10;;
1204;SDS011;592;48.764;9.174;2022-08-03T10:06:30;5.87;;;2.40;;
1204;SDS011;592;48.764;9.174;2022-08-03T10:09:03;5.50;;;2.50;;
1204;SDS011;592;48.764;9.174;2022-08-03T10:11:32;4.97;;;2.87;;
1204;SDS011;592;48.764;9.174;2022-08-03T10:14:00;4.10;;;2.37;;
1204;SDS011;592;48.764;9.174;2022-08-03T10:16:32;5.27;;;2.30;;
1204;SDS011;592;48.764;9.174;2022-08-03T10:18:59;5.10;;;2.43;;
1204;SDS011;592;48.764;9.174;2022-08-03T10:21:26;9.23;;;2.60;;
1204;SDS011;592;48.764;9.174;2022-08-03T10:23:56;5.07;;;2.30;;
1204;SDS011;592;48.764;9.174;2022-08-03T10:26:22;4.33;;;2.40;;
1204;SDS011;592;48.764;9.174;2022-08-03T10:28:52;6.33;;;2.90;;
1204;SDS011;592;48.764;9.174;2022-08-03T10:31:20;4.07;;;2.37;;
1204;SDS011;592;48.764;9.174;2022-08-03T10:33:50;4.20;;;2.20;;
1204;SDS011;592;48.764;9.174;2022-08-03T10:36:20;5.50;;;2.77;;
1204;SDS011;592;48.764;9.174;2022-08-03T10:38:49;4.20;;;2.30;;
1204;SDS011;592;48.764;9.174;2022-08-03T10:41:18;4.47;;;2.57;;
1204;SDS011;592;48.764;9.174;2022-08-03T10:43:46;4.13;;;2.50;;
1204;SDS011;592;48.764;9.174;2022-08-03T10:46:16;4.20;;;2.50;;
1204;SDS011;592;48.764;9.174;2022-08-03T10:48:44;7.00;;;2.63;;
1204;SDS011;592;48.764;9.174;2022-08-03T10:51:13;5.40;;;2.60;;
1204;SDS011;592;48.764;9.174;2022-08-03T10:53:41;4.93;;;2.90;;
1204;SDS011;592;48.764;9.174;2022-08-03T11:05:38;5.17;;;2.23;;
1204;SDS011;592;48.764;9.174;2022-08-03T11:08:21;4.27;;;2.60;;
1204;SDS011;592;48.764;9.174;2022-08-03T11:10:59;4.70;;;2.37;;
1204;SDS011;592;48.764;9.174;2022-08-03T11:13:57;4.30;;;2.70;;
1204;SDS011;592;48.764;9.174;2022-08-03T11:16:26;5.10;;;2.63;;
1204;SDS011;592;48.764;9.174;2022-08-03T11:18:55;5.80;;;2.67;;
1204;SDS011;592;48.764;9.174;2022-08-03T11:27:22;4.50;;;2.80;;
1204;SDS011;592;48.764;9.174;2022-08-03T11:29:57;6.57;;;2.97;;
1204;SDS011;592;48.764;9.174;2022-08-03T11:35:32;6.33;;;2.83;;
1204;SDS011;592;48.764;9.174;2022-08-03T11:38:04;4.63;;;2.50;;
1204;SDS011;592;48.764;9.174;2022-08-03T11:40:32;6.40;;;3.00;;
1204;SDS011;592;48.764;9.174;2022-08-03T11:43:04;4.77;;;3.00;;
1204;SDS011;592;48.764;9.174;2022-08-03T11:45:34;5.17;;;2.67;;
1204;SDS011;592;48.764;9.174;2022-08-03T11:48:09;5.17;;;2.60;;
1204;SDS011;592;48.764;9.174;2022-08-03T11:50:39;5.20;;;2.90;;
1204;SDS011;592;48.764;9.174;2022-08-03T11:53:11;4.77;;;2.80;;
1204;SDS011;592;48.764;9.174;2022-08-03T11:55:39;5.73;;;2.90;;
1204;SDS011;592;48.764;9.174;2022-08-03T11:58:09;4.87;;;3.10;;
1204;SDS011;592;48.764;9.174;2022-08-03T12:00:42;4.80;;;2.80;;
1204;SDS011;592;48.764;9.174;2022-08-03T12:03:09;5.20;;;3.00;;
1204;SDS011;592;48.764;9.174;2022-08-03T12:05:42;4.10;;;2.37;;
1204;SDS011;592;48.764;9.174;2022-08-03T12:08:11;4.30;;;2.80;;
1204;SDS011;592;48.764;9.174;2022-08-03T12:10:39;5.30;;;2.80;;
1204;SDS011;592;48.764;9.174;2022-08-03T12:13:11;4.20;;;2.70;;
1204;SDS011;592;48.764;9.174;2022-08-03T12:15:38;5.07;;;3.17;;
1204;SDS011;592;48.764;9.174;2022-08-03T12:18:12;4.63;;;2.93;;
1204;SDS011;592;48.764;9.174;2022-08-03T12:20:41;5.50;;;3.03;;
1204;SDS011;592;48.764;9.174;2022-08-03T12:23:09;5.07;;;3.00;;
1204;SDS011;592;48.764;9.174;2022-08-03T12:25:37;4.33;;;2.97;;
1204;SDS011;592;48.764;9.174;2022-08-03T12:28:06;4.53;;;2.47;;
1204;SDS011;592;48.764;9.174;2022-08-03T12:30:40;4.40;;;2.43;;
1204;SDS011;592;48.764;9.174;2022-08-03T12:33:16;4.30;;;2.77;;
1204;SDS011;592;48.764;9.174;2022-08-03T12:35:45;5.83;;;3.10;;
1204;SDS011;592;48.764;9.174;2022-08-03T12:38:18;5.50;;;3.37;;
1204;SDS011;592;48.764;9.174;2022-08-03T12:40:54;5.20;;;2.63;;
1204;SDS011;592;48.764;9.174;2022-08-03T12:43:21;4.87;;;3.03;;
1204;SDS011;592;48.764;9.174;2022-08-03T12:45:48;12.93;;;3.47;;
1204;SDS011;592;48.764;9.174;2022-08-03T12:48:16;4.60;;;3.10;;
1204;SDS011;592;48.764;9.174;2022-08-03T12:50:43;8.00;;;2.80;;
1204;SDS011;592;48.764;9.174;2022-08-03T12:53:10;4.80;;;2.87;;
1204;SDS011;592;48.764;9.174;2022-08-03T12:55:37;5.07;;;3.23;;
1204;SDS011;592;48.764;9.174;2022-08-03T12:58:04;6.63;;;2.87;;
1204;SDS011;592;48.764;9.174;2022-08-03T13:00:34;6.33;;;3.20;;
1204;SDS011;592;48.764;9.174;2022-08-03T13:03:00;5.13;;;3.40;;
1204;SDS011;592;48.764;9.174;2022-08-03T13:05:31;4.70;;;2.67;;
1204;SDS011;592;48.764;9.174;2022-08-03T13:08:16;5.53;;;3.00;;
1204;SDS011;592;48.764;9.174;2022-08-03T13:10:43;5.57;;;3.07;;
1204;SDS011;592;48.764;9.174;2022-08-03T13:13:10;4.97;;;3.00;;
1204;SDS011;592;48.764;9.174;2022-08-03T13:15:37;5.07;;;3.20;;
1204;SDS011;592;48.764;9.174;2022-08-03T13:18:04;4.37;;;2.50;;
1204;SDS011;592;48.764;9.174;2022-08-03T13:20:32;5.83;;;3.20;;
1204;SDS011;592;48.764;9.174;2022-08-03T13:22:59;6.37;;;3.10;;
1204;SDS011;592;48.764;9.174;2022-08-03T13:25:25;5.50;;;3.23;;
1204;SDS011;592;48.764;9.174;2022-08-03T13:27:52;4.27;;;2.77;;
1204;SDS011;592;48.764;9.174;2022-08-03T13:30:19;5.10;;;2.77;;
1204;SDS011;592;48.764;9.174;2022-08-03T13:32:46;4.93;;;2.70;;
1204;SDS011;592;48.764;9.174;2022-08-03T13:35:12;5.87;;;3.03;;
1204;SDS011;592;48.764;9.174;2022-08-03T13:37:40;4.37;;;2.87;;
1204;SDS011;592;48.764;9.174;2022-08-03T13:40:07;5.67;;;3.37;;
1204;SDS011;592;48.764;9.174;2022-08-03T13:42:34;4.73;;;3.13;;
1204;SDS011;592;48.764;9.174;2022-08-03T13:45:02;5.80;;;3.10;;
1204;SDS011;592;48.764;9.174;2022-08-03T13:47:30;5.07;;;2.90;;
1204;SDS011;592;48.764;9.174;2022-08-03T13:49:57;6.43;;;3.47;;
1204;SDS011;592;48.764;9.174;2022-08-03T13:52:23;5.03;;;3.00;;
1204;SDS011;592;48.764;9.174;2022-08-03T13:54:51;5.30;;;3.17;;
1204;SDS011;592;48.764;9.174;2022-08-03T13:57:18;4.83;;;2.90;;
1204;SDS011;592;48.764;9.174;2022-08-03T13:59:45;6.80;;;2.93;;
1204;SDS011;592;48.764;9.174;2022-08-03T14:02:11;4.30;;;3.10;;
1204;SDS011;592;48.764;9.174;2022-08-03T14:04:38;5.07;;;3.03;;
1204;SDS011;592;48.764;9.174;2022-08-03T14:07:05;4.33;;;2.90;;
1204;SDS011;592;48.764;9.174;2022-08-03T14:09:31;5.27;;;3.00;;
1204;SDS011;592;48.764;9.174;2022-08-03T14:12:00;5.00;;;2.90;;
1204;SDS011;592;48.764;9.174;2022-08-03T14:14:26;4.40;;;2.90;;
1204;SDS011;592;48.764;9.174;2022-08-03T14:16:53;4.63;;;2.90;;
1204;SDS011;592;48.764;9.174;2022-08-03T14:19:20;3.90;;;2.80;;
1204;SDS011;592;48.764;9.174;2022-08-03T14:21:46;4.00;;;2.77;;
1204;SDS011;592;48.764;9.174;2022-08-03T14:24:13;4.40;;;3.00;;
1204;SDS011;592;48.764;9.174;2022-08-03T14:26:40;4.80;;;2.80;;
1204;SDS011;592;48.764;9.174;2022-08-03T14:29:07;4.90;;;2.93;;
1204;SDS011;592;48.764;9.174;2022-08-03T14:31:35;4.40;;;3.07;;
1204;SDS011;592;48.764;9.174;2022-08-03T14:34:02;5.10;;;2.93;;
1204;SDS011;592;48.764;9.174;2022-08-03T14:36:28;10.00;;;2.90;;
1204;SDS011;592;48.764;9.174;2022-08-03T14:38:55;4.90;;;2.93;;
1204;SDS011;592;48.764;9.174;2022-08-03T14:41:22;5.33;;;2.93;;
1204;SDS011;592;48.764;9.174;2022-08-03T14:43:48;4.90;;;3.27;;
1204;SDS011;592;48.764;9.174;2022-08-03T14:46:16;4.10;;;2.70;;
1204;SDS011;592;48.764;9.174;2022-08-03T14:48:43;6.30;;;3.47;;
1204;SDS011;592;48.764;9.174;2022-08-03T14:51:10;4.70;;;3.30;;
1204;SDS011;592;48.764;9.174;2022-08-03T14:53:36;4.20;;;3.00;;
1204;SDS011;592;48.764;9.174;2022-08-03T14:56:03;4.67;;;3.40;;
1204;SDS011;592;48.764;9.174;2022-08-03T14:58:30;4.30;;;2.70;;
1204;SDS011;592;48.764;9.174;2022-08-03T15:00:57;8.20;;;3.17;;
1204;SDS011;592;48.764;9.174;2022-08-03T15:03:25;5.70;;;2.70;;
1204;SDS011;592;48.764;9.174;2022-08-03T15:05:52;4.90;;;3.27;;
1204;SDS011;592;48.764;9.174;2022-08-03T15:08:21;5.63;;;2.50;;
1204;SDS011;592;48.764;9.174;2022-08-03T15:10:48;7.40;;;2.80;;
1204;SDS011;592;48.764;9.174;2022-08-03T15:13:15;4.10;;;2.70;;
1204;SDS011;592;48.764;9.174;2022-08-03T15:15:43;4.20;;;2.90;;
1204;SDS011;592;48.764;9.174;2022-08-03T15:18:10;4.00;;;2.80;;
1204;SDS011;592;48.764;9.174;2022-08-03T15:20:38;5.33;;;3.00;;
1204;SDS011;592;48.764;9.174;2022-08-03T15:23:04;6.10;;;3.30;;
1204;SDS011;592;48.764;9.174;2022-08-03T15:25:31;5.40;;;2.93;;
1204;SDS011;592;48.764;9.174;2022-08-03T15:27:58;4.70;;;3.10;;
1204;SDS011;592;48.764;9.174;2022-08-03T15:30:24;5.20;;;3.00;;
1204;SDS011;592;48.764;9.174;2022-08-03T15:32:51;5.13;;;2.83;;
1204;SDS011;592;48.764;9.174;2022-08-03T15:35:18;7.03;;;2.87;;
1204;SDS011;592;48.764;9.174;2022-08-03T15:37:46;5.00;;;2.77;;
1204;SDS011;592;48.764;9.174;2022-08-03T15:40:13;5.80;;;2.90;;
1204;SDS011;592;48.764;9.174;2022-08-03T15:42:39;5.00;;;3.03;;
1204;SDS011;592;48.764;9.174;2022-08-03T15:45:06;5.90;;;3.10;;
1204;SDS011;592;48.764;9.174;2022-08-03T15:47:33;5.10;;;2.90;;
1204;SDS011;592;48.764;9.174;2022-08-03T15:50:00;4.40;;;2.80;;
1204;SDS011;592;48.764;9.174;2022-08-03T15:52:27;5.27;;;3.17;;
1204;SDS011;592;48.764;9.174;2022-08-03T15:54:55;7.93;;;3.23;;
1204;SDS011;592;48.764;9.174;2022-08-03T15:57:21;4.80;;;2.93;;
1204;SDS011;592;48.764;9.174;2022-08-03T15:59:48;5.00;;;3.00;;
1204;SDS011;592;48.764;9.174;2022-08-03T16:02:15;7.33;;;3.20;;
1204;SDS011;592;48.764;9.174;2022-08-03T16:04:42;4.20;;;2.70;;
1204;SDS011;592;48.764;9.174;2022-08-03T16:07:09;4.77;;;2.60;;
1204;SDS011;592;48.764;9.174;2022-08-03T16:09:36;4.60;;;2.90;;
1204;SDS011;592;48.764;9.174;2022-08-03T16:12:04;5.33;;;2.90;;
1204;SDS011;592;48.764;9.174;2022-08-03T16:14:31;5.43;;;2.93;;
1204;SDS011;592;48.764;9.174;2022-08-03T16:16:57;4.60;;;3.30;;
1204;SDS011;592;48.764;9.174;2022-08-03T16:19:24;4.73;;;2.80;;
1204;SDS011;592;48.764;9.174;2022-08-03T16:21:52;5.53;;;2.70;;
1204;SDS011;592;48.764;9.174;2022-08-03T16:24:18;5.90;;;2.73;;
1204;SDS011;592;48.764;9.174;2022-08-03T16:26:45;4.80;;;3.00;;
1204;SDS011;592;48.764;9.174;2022-08-03T16:29:13;4.80;;;2.80;;
1204;SDS011;592;48.764;9.174;2022-08-03T16:31:40;4.37;;;2.80;;
1204;SDS011;592;48.764;9.174;2022-08-03T16:34:08;6.07;;;2.80;;
1204;SDS011;592;48.764;9.174;2022-08-03T16:36:34;5.17;;;2.40;;
1204;SDS011;592;48.764;9.174;2022-08-03T16:39:01;5.23;;;2.90;;
1204;SDS011;592;48.764;9.174;2022-08-03T16:41:28;6.23;;;2.80;;
1204;SDS011;592;48.764;9.174;2022-08-03T16:43:55;4.80;;;3.27;;
1204;SDS011;592;48.764;9.174;2022-08-03T16:46:23;6.30;;;2.70;;
1204;SDS011;592;48.764;9.174;2022-08-03T16:48:50;5.13;;;2.83;;
1204;SDS011;592;48.764;9.174;2022-08-03T16:51:16;5.27;;;3.20;;
1204;SDS011;592;48.764;9.174;2022-08-03T16:53:44;5.13;;;2.80;;
1204;SDS011;592;48.764;9.174;2022-08-03T16:56:11;7.10;;;3.10;;
1204;SDS011;592;48.764;9.174;2022-08-03T16:58:38;5.00;;;2.80;;
1204;SDS011;592;48.764;9.174;2022-08-03T17:01:04;7.90;;;2.80;;
1204;SDS011;592;48.764;9.174;2022-08-03T17:03:32;4.30;;;3.00;;
1204;SDS011;592;48.764;9.174;2022-08-03T17:06:03;4.57;;;2.60;;
1204;SDS011;592;48.764;9.174;2022-08-03T17:08:30;4.90;;;2.70;;
1204;SDS011;592;48.764;9.174;2022-08-03T17:10:57;4.47;;;2.70;;
1204;SDS011;592;48.764;9.174;2022-08-03T17:13:24;5.70;;;3.00;;
1204;SDS011;592;48.764;9.174;2022-08-03T17:15:50;5.10;;;2.70;;
1204;SDS011;592;48.764;9.174;2022-08-03T17:18:19;6.07;;;3.10;;
1204;SDS011;592;48.764;9.174;2022-08-03T17:20:49;4.60;;;2.70;;
1204;SDS011;592;48.764;9.174;2022-08-03T17:23:22;5.10;;;2.80;;
1204;SDS011;592;48.764;9.174;2022-08-03T17:26:00;5.10;;;2.73;;
1204;SDS011;592;48.764;9.174;2022-08-03T17:28:31;6.93;;;3.43;;
1204;SDS011;592;48.764;9.174;2022-08-03T17:31:03;5.60;;;3.17;;
1204;SDS011;592;48.764;9.174;2022-08-03T17:33:44;6.67;;;3.53;;
1204;SDS011;592;48.764;9.174;2022-08-03T17:36:14;5.57;;;3.10;;
1204;SDS011;592;48.764;9.174;2022-08-03T17:38:44;5.40;;;3.60;;
1204;SDS011;592;48.764;9.174;2022-08-03T17:41:12;6.20;;;2.87;;
1204;SDS011;592;48.764;9.174;2022-08-03T17:43:39;6.30;;;2.67;;
1204;SDS011;592;48.764;9.174;2022-08-03T17:46:07;4.90;;;2.83;;
1204;SDS011;592;48.764;9.174;2022-08-03T17:48:34;4.73;;;2.93;;
1204;SDS011;592;48.764;9.174;2022-08-03T17:51:02;5.33;;;2.80;;
1204;SDS011;592;48.764;9.174;2022-08-03T17:53:35;4.53;;;2.70;;
1204;SDS011;592;48.764;9.174;2022-08-03T17:56:07;9.10;;;3.20;;
1204;SDS011;592;48.764;9.174;2022-08-03T17:58:47;5.00;;;2.90;;
1204;SDS011;592;48.764;9.174;2022-08-03T18:01:22;4.50;;;2.97;;
1204;SDS011;592;48.764;9.174;2022-08-03T18:04:08;5.27;;;3.00;;
1204;SDS011;592;48.764;9.174;2022-08-03T18:06:38;5.00;;;2.93;;
1204;SDS011;592;48.764;9.174;2022-08-03T18:09:08;4.37;;;2.93;;
1204;SDS011;592;48.764;9.174;2022-08-03T18:11:37;4.10;;;2.50;;
1204;SDS011;592;48.764;9.174;2022-08-03T18:14:11;4.10;;;2.70;;
1204;SDS011;592;48.764;9.174;2022-08-03T18:16:42;4.90;;;2.47;;
1204;SDS011;592;48.764;9.174;2022-08-03T18:19:11;4.33;;;2.60;;
1204;SDS011;592;48.764;9.174;2022-08-03T18:21:38;6.73;;;2.57;;
1204;SDS011;592;48.764;9.174;2022-08-03T18:24:08;4.83;;;3.00;;
1204;SDS011;592;48.764;9.174;2022-08-03T18:26:36;5.00;;;3.00;;
1204;SDS011;592;48.764;9.174;2022-08-03T18:29:03;5.10;;;3.00;;
1204;SDS011;592;48.764;9.174;2022-08-03T18:31:30;5.77;;;2.80;;
1204;SDS011;592;48.764;9.174;2022-08-03T18:34:00;4.67;;;3.00;;
1204;SDS011;592;48.764;9.174;2022-08-03T18:36:28;8.80;;;2.97;;
1204;SDS011;592;48.764;9.174;2022-08-03T18:38:58;5.60;;;3.03;;
1204;SDS011;592;48.764;9.174;2022-08-03T18:41:26;7.20;;;3.20;;
1204;SDS011;592;48.764;9.174;2022-08-03T18:43:54;6.90;;;3.00;;
1204;SDS011;592;48.764;9.174;2022-08-03T18:46:22;5.53;;;2.90;;
1204;SDS011;592;48.764;9.174;2022-08-03T18:49:02;6.43;;;2.77;;
1204;SDS011;592;48.764;9.174;2022-08-03T18:51:36;4.57;;;3.07;;
1204;SDS011;592;48.764;9.174;2022-08-03T18:54:05;5.60;;;3.03;;
1204;SDS011;592;48.764;9.174;2022-08-03T18:56:39;4.70;;;2.90;;
1204;SDS011;592;48.764;9.174;2022-08-03T18:59:14;5.07;;;2.70;;
1204;SDS011;592;48.764;9.174;2022-08-03T19:01:47;6.37;;;3.47;;
1204;SDS011;592;48.764;9.174;2022-08-03T19:04:18;7.10;;;3.50;;
1204;SDS011;592;48.764;9.174;2022-08-03T19:06:51;5.63;;;3.83;;
1204;SDS011;592;48.764;9.174;2022-08-03T19:09:33;4.87;;;3.17;;
1204;SDS011;592;48.764;9.174;2022-08-03T19:12:08;8.10;;;3.43;;
1204;SDS011;592;48.764;9.174;2022-08-03T19:14:42;12.40;;;3.73;;
1204;SDS011;592;48.764;9.174;2022-08-03T19:17:11;7.03;;;3.87;;
1204;SDS011;592;48.764;9.174;2022-08-03T19:19:40;7.23;;;3.80;;
1204;SDS011;592;48.764;9.174;2022-08-03T19:22:10;6.20;;;3.90;;
1204;SDS011;592;48.764;9.174;2022-08-03T19:24:38;5.90;;;4.10;;
1204;SDS011;592;48.764;9.174;2022-08-03T19:27:08;5.50;;;4.20;;
1204;SDS011;592;48.764;9.174;2022-08-03T19:29:39;7.32;;;3.47;;
1204;SDS011;592;48.764;9.174;2022-08-03T19:32:11;5.70;;;3.40;;
1204;SDS011;592;48.764;9.174;2022-08-03T19:34:39;6.50;;;3.37;;
1204;SDS011;592;48.764;9.174;2022-08-03T19:37:08;5.20;;;3.30;;
1204;SDS011;592;48.764;9.174;2022-08-03T19:39:37;6.17;;;3.40;;
1204;SDS011;592;48.764;9.174;2022-08-03T19:42:05;6.40;;;3.10;;
1204;SDS011;592;48.764;9.174;2022-08-03T19:44:37;5.47;;;3.30;;
1204;SDS011;592;48.764;9.174;2022-08-03T19:47:08;5.10;;;3.10;;
1204;SDS011;592;48.764;9.174;2022-08-03T19:49:37;6.87;;;3.43;;
1204;SDS011;592;48.764;9.174;2022-08-03T19:52:07;4.83;;;3.20;;
1204;SDS011;592;48.764;9.174;2022-08-03T19:54:36;4.70;;;3.13;;
1204;SDS011;592;48.764;9.174;2022-08-03T19:57:05;5.30;;;2.83;;
1204;SDS011;592;48.764;9.174;2022-08-03T19:59:33;4.90;;;2.77;;
1204;SDS011;592;48.764;9.174;2022-08-03T20:02:03;6.60;;;3.00;;
1204;SDS011;592;48.764;9.174;2022-08-03T20:04:32;4.80;;;2.90;;
1204;SDS011;592;48.764;9.174;2022-08-03T20:06:59;4.37;;;2.63;;
1204;SDS011;592;48.764;9.174;2022-08-03T20:09:27;4.33;;;2.73;;
1204;SDS011;592;48.764;9.174;2022-08-03T20:11:54;5.73;;;3.07;;
1204;SDS011;592;48.764;9.174;2022-08-03T20:14:21;4.60;;;2.93;;
1204;SDS011;592;48.764;9.174;2022-08-03T20:16:48;5.90;;;3.17;;
1204;SDS011;592;48.764;9.174;2022-08-03T20:19:17;4.97;;;3.07;;
1204;SDS011;592;48.764;9.174;2022-08-03T20:21:45;8.27;;;2.53;;
1204;SDS011;592;48.764;9.174;2022-08-03T20:24:15;4.10;;;2.70;;
1204;SDS011;592;48.764;9.174;2022-08-03T20:26:46;7.13;;;2.83;;
1204;SDS011;592;48.764;9.174;2022-08-03T20:29:17;5.57;;;2.70;;
1204;SDS011;592;48.764;9.174;2022-08-03T20:31:50;7.27;;;2.83;;
1204;SDS011;592;48.764;9.174;2022-08-03T20:34:18;5.27;;;2.80;;
1204;SDS011;592;48.764;9.174;2022-08-03T20:36:44;7.37;;;2.93;;
1204;SDS011;592;48.764;9.174;2022-08-03T20:39:11;4.53;;;2.43;;
1204;SDS011;592;48.764;9.174;2022-08-03T20:41:38;5.30;;;3.00;;
1204;SDS011;592;48.764;9.174;2022-08-03T20:44:06;5.70;;;2.83;;
1204;SDS011;592;48.764;9.174;2022-08-03T20:46:32;5.47;;;2.70;;
1204;SDS011;592;48.764;9.174;2022-08-03T20:48:59;5.80;;;2.77;;
1204;SDS011;592;48.764;9.174;2022-08-03T20:51:28;4.83;;;2.73;;
1204;SDS011;592;48.764;9.174;2022-08-03T20:53:56;4.97;;;2.60;;
1204;SDS011;592;48.764;9.174;2022-08-03T20:56:24;6.03;;;2.70;;
1204;SDS011;592;48.764;9.174;2022-08-03T20:58:52;5.20;;;2.73;;
1204;SDS011;592;48.764;9.174;2022-08-03T21:01:20;6.23;;;2.70;;
1204;SDS011;592;48.764;9.174;2022-08-03T21:03:46;5.47;;;2.43;;
1204;SDS011;592;48.764;9.174;2022-08-03T21:06:14;7.00;;;2.43;;
1204;SDS011;592;48.764;9.174;2022-08-03T21:08:45;4.70;;;2.83;;
1204;SDS011;592;48.764;9.174;2022-08-03T21:11:15;5.43;;;2.40;;
1204;SDS011;592;48.764;9.174;2022-08-03T21:13:44;8.90;;;2.33;;
1204;SDS011;592;48.764;9.174;2022-08-03T21:16:16;5.17;;;2.10;;
1204;SDS011;592;48.764;9.174;2022-08-03T21:18:48;4.40;;;2.47;;
1204;SDS011;592;48.764;9.174;2022-08-03T21:21:16;6.37;;;2.67;;
1204;SDS011;592;48.764;9.174;2022-08-03T21:23:46;5.20;;;2.70;;
1204;SDS011;592;48.764;9.174;2022-08-03T21:26:15;5.90;;;2.73;;
1204;SDS011;592;48.764;9.174;2022-08-03T21:28:43;5.10;;;2.77;;
1204;SDS011;592;48.764;9.174;2022-08-03T21:31:10;5.10;;;3.00;;
1204;SDS011;592;48.764;9.174;2022-08-03T21:33:38;8.00;;;2.67;;
1204;SDS011;592;48.764;9.174;2022-08-03T21:36:05;4.73;;;2.83;;
1204;SDS011;592;48.764;9.174;2022-08-03T21:38:32;5.20;;;2.60;;
1204;SDS011;592;48.764;9.174;2022-08-03T21:41:01;5.27;;;2.60;;
1204;SDS011;592;48.764;9.174;2022-08-03T21:43:28;6.63;;;2.70;;
1204;SDS011;592;48.764;9.174;2022-08-03T21:45:56;5.63;;;3.13;;
1204;SDS011;592;48.764;9.174;2022-08-03T21:48:25;5.57;;;2.50;;
1204;SDS011;592;48.764;9.174;2022-08-03T21:50:52;5.47;;;2.70;;
1204;SDS011;592;48.764;9.174;2022-08-03T21:53:19;5.33;;;2.50;;
1204;SDS011;592;48.764;9.174;2022-08-03T21:55:52;4.73;;;3.00;;
1204;SDS011;592;48.764;9.174;2022-08-03T21:58:24;4.97;;;2.60;;
1204;SDS011;592;48.764;9.174;2022-08-03T22:00:53;7.57;;;3.33;;
1204;SDS011;592;48.764;9.174;2022-08-03T22:03:21;7.00;;;2.53;;
1204;SDS011;592;48.764;9.174;2022-08-03T22:05:50;4.83;;;2.90;;
1204;SDS011;592;48.764;9.174;2022-08-03T22:08:18;5.93;;;2.80;;
1204;SDS011;592;48.764;9.174;2022-08-03T22:10:45;4.60;;;2.60;;
1204;SDS011;592;48.764;9.174;2022-08-03T22:13:13;5.87;;;3.00;;
1204;SDS011;592;48.764;9.174;2022-08-03T22:15:42;6.50;;;4.27;;
1204;SDS011;592;48.764;9.174;2022-08-03T22:18:09;7.13;;;4.63;;
1204;SDS011;592;48.764;9.174;2022-08-03T22:20:36;11.93;;;4.10;;
1204;SDS011;592;48.764;9.174;2022-08-03T22:23:03;8.27;;;4.30;;
1204;SDS011;592;48.764;9.174;2022-08-03T22:25:32;6.63;;;3.60;;
1204;SDS011;592;48.764;9.174;2022-08-03T22:28:02;7.17;;;4.10;;
1204;SDS011;592;48.764;9.174;2022-08-03T22:30:33;6.83;;;5.10;;
1204;SDS011;592;48.764;9.174;2022-08-03T22:33:01;6.00;;;4.07;;
1204;SDS011;592;48.764;9.174;2022-08-03T22:35:30;8.63;;;3.90;;
1204;SDS011;592;48.764;9.174;2022-08-03T22:37:58;5.60;;;3.57;;